Time;durP1;ratioP1;P1;durP2;ratioP2;P2;SDS_P1;SDS_P2;PMS_P1;PMS_P2;Temp;Humidity;BMP_temperature;BMP_pressure;BME280_temperature;BME280_humidity;BME280_pressure;Samples;Min_cycle;Max_cycle;Signal;HPM_P1;HPM_P2
2022/07/18 00:00:26;;;;;;;;;;;;;;;19.48;31.16;97586.44;30001;982;1875;-60
2022/07/18 00:00:57;;;;;;;;;;;;;;;19.47;31.63;97590.34;30001;982;1875;-60
2022/07/18 00:01:28;;;;;;;;;;;;;;;19.46;31.46;97582.41;30001;982;1875;-60
2022/07/18 00:02:00;;;;;;;;;;;;;;;19.43;31.70;97590.19;30001;982;1875;-60
2022/07/18 00:02:31;;;;;;;;;;;;;;;19.41;31.53;97581.47;30001;982;1875;-61
2022/07/18 00:03:02;;;;;;;;;;;;;;;19.41;31.29;97578.72;30001;983;1875;-60
2022/07/18 00:03:33;;;;;;;;;;;;;;;19.38;31.30;97575.84;30001;983;1874;-60
2022/07/18 00:04:03;;;;;;;;;;;;;;;19.37;31.38;97580.53;30001;983;1861;-60
2022/07/18 00:04:34;;;;;;;;;;;;;;;19.35;31.50;97580.06;30001;983;1866;-60
2022/07/18 00:05:06;;;;;;;;;;;;;;;19.34;31.49;97586.72;30001;977;1862;-59
2022/07/18 00:05:37;;;;;;;;;;;;;;;19.33;31.48;97578.78;30001;983;1853;-61
2022/07/18 00:06:08;;;;;;;;;;;;;;;19.31;31.63;97584.63;30001;983;1875;-61
2022/07/18 00:06:38;;;;;;;;;;;;;;;19.30;31.79;97580.25;30001;983;1875;-61
2022/07/18 00:07:13;;;;;;;;;;;;;;;19.28;31.84;97579.78;30001;983;1875;-60
2022/07/18 00:07:43;;;;;;;;;;;;;;;19.27;31.99;97578.16;30001;983;1875;-59
2022/07/18 00:08:14;;;;;;;;;;;;;;;19.25;31.67;97580.44;30001;982;1875;-60
2022/07/18 00:08:45;;;;;;;;;;;;;;;19.24;31.92;97580.78;30001;982;1875;-60
2022/07/18 00:09:17;;;;;;;;;;;;;;;19.23;31.89;97587.41;30001;982;1875;-59
2022/07/18 00:09:48;;;;;;;;;;;;;;;19.21;31.81;97581.44;30001;982;1875;-61
2022/07/18 00:10:21;;;;;;;;;;;;;;;19.18;31.96;97588.41;30001;983;1861;-60
2022/07/18 00:10:51;;;;;;;;;;;;;;;19.17;32.32;97581.28;30001;983;1866;-60
2022/07/18 00:11:22;;;;;;;;;;;;;;;19.16;32.19;97587.94;30001;983;1875;-60
2022/07/18 00:11:54;;;;;;;;;;;;;;;19.16;31.91;97581.62;30001;983;1862;-61
2022/07/18 00:12:25;;;;;;;;;;;;;;;19.14;32.29;97587.44;30001;983;1866;-60
2022/07/18 00:12:55;;;;;;;;;;;;;;;19.13;32.40;97590.53;30001;983;1875;-61
2022/07/18 00:13:26;;;;;;;;;;;;;;;19.11;32.29;97590.88;30001;983;1875;-60
2022/07/18 00:13:57;;;;;;;;;;;;;;;19.09;32.41;97584.87;30001;983;1875;-60
2022/07/18 00:14:28;;;;;;;;;;;;;;;19.08;32.06;97586.03;30001;982;1875;-61
2022/07/18 00:14:59;;;;;;;;;;;;;;;19.05;32.50;97586.72;30001;982;1875;-60
2022/07/18 00:15:30;;;;;;;;;;;;;;;19.03;32.33;97580.72;30001;982;1862;-59
2022/07/18 00:16:01;;;;;;;;;;;;;;;19.02;32.26;97584.63;30001;982;1866;-60
2022/07/18 00:16:32;;;;;;;;;;;;;;;19.01;32.39;97580.25;30001;982;1875;-60
2022/07/18 00:17:04;;;;;;;;;;;;;;;19.01;32.42;97577.50;30001;982;1875;-60
2022/07/18 00:17:35;;;;;;;;;;;;;;;18.99;32.24;97580.59;30001;982;1875;-61
2022/07/18 00:18:06;;;;;;;;;;;;;;;18.98;32.50;97578.16;30001;983;1875;-60
2022/07/18 00:18:37;;;;;;;;;;;;;;;18.97;32.46;97582.06;30001;983;1875;-60
2022/07/18 00:19:08;;;;;;;;;;;;;;;18.95;32.44;97576.87;30001;983;1875;-60
2022/07/18 00:19:39;;;;;;;;;;;;;;;18.95;32.17;97578.81;30001;983;1875;-60
2022/07/18 00:20:11;;;;;;;;;;;;;;;18.93;32.52;97583.84;30001;983;1875;-60
2022/07/18 00:20:42;;;;;;;;;;;;;;;18.93;32.49;97581.09;30001;983;1862;-59
2022/07/18 00:21:13;;;;;;;;;;;;;;;18.92;33.71;97590.47;30001;983;1866;-59
2022/07/18 00:21:44;;;;;;;;;;;;;;;18.88;32.40;97593.06;30001;983;1862;-60
2022/07/18 00:22:15;;;;;;;;;;;;;;;18.87;32.76;97590.66;30001;982;1866;-60
2022/07/18 00:22:46;;;;;;;;;;;;;;;18.86;32.83;97592.59;30001;982;1875;-60
2022/07/18 00:23:17;;;;;;;;;;;;;;;18.85;32.70;97580.00;30001;982;1875;-60
2022/07/18 00:23:47;;;;;;;;;;;;;;;18.85;32.66;97590.19;30001;982;1844;-59
2022/07/18 00:24:18;;;;;;;;;;;;;;;18.83;32.53;97593.25;30001;982;1875;-59
2022/07/18 00:24:49;;;;;;;;;;;;;;;18.83;32.71;97586.94;30001;982;1841;-60
2022/07/18 00:25:20;;;;;;;;;;;;;;;18.82;32.70;97588.09;30001;982;1875;-61
2022/07/18 00:25:51;;;;;;;;;;;;;;;18.81;32.54;97589.22;30001;983;1875;-59
2022/07/18 00:26:21;;;;;;;;;;;;;;;18.80;32.54;97593.91;30001;983;1875;-60
2022/07/18 00:26:52;;;;;;;;;;;;;;;18.80;32.59;97593.09;30001;983;1862;-59
2022/07/18 00:27:23;;;;;;;;;;;;;;;18.78;32.57;97596.19;30001;983;1866;-60
2022/07/18 00:27:54;;;;;;;;;;;;;;;18.77;32.78;97593.75;30001;983;1875;-60
2022/07/18 00:28:25;;;;;;;;;;;;;;;18.77;32.78;97593.75;30001;983;1875;-60
2022/07/18 00:28:56;;;;;;;;;;;;;;;18.76;32.71;97592.94;30001;983;1862;-61
2022/07/18 00:29:27;;;;;;;;;;;;;;;18.74;32.68;97593.28;30001;983;1866;-59
2022/07/18 00:29:58;;;;;;;;;;;;;;;18.73;32.78;97594.41;30001;982;1875;-60
2022/07/18 00:30:29;;;;;;;;;;;;;;;18.73;32.40;97594.41;30001;982;1875;-59
2022/07/18 00:31:00;;;;;;;;;;;;;;;18.72;32.67;97590.06;30001;982;1862;-60
2022/07/18 00:31:31;;;;;;;;;;;;;;;18.70;32.62;97589.59;30001;982;1867;-60
2022/07/18 00:32:02;;;;;;;;;;;;;;;18.71;32.53;97595.91;30001;982;1875;-60
2022/07/18 00:32:33;;;;;;;;;;;;;;;18.71;32.08;97591.19;30001;982;1862;-60
2022/07/18 00:33:04;;;;;;;;;;;;;;;18.69;32.08;97588.00;30001;983;1866;-60
2022/07/18 00:33:38;;;;;;;;;;;;;;;18.70;32.40;97591.53;30001;983;1875;-60
2022/07/18 00:34:09;;;;;;;;;;;;;;;18.69;32.09;97582.50;30001;983;1875;-59
2022/07/18 00:34:40;;;;;;;;;;;;;;;18.68;32.27;97591.87;30001;983;1875;-61
2022/07/18 00:35:11;;;;;;;;;;;;;;;18.70;31.93;97594.28;30001;983;1875;-60
2022/07/18 00:35:42;;;;;;;;;;;;;;;18.67;32.26;97593.00;30001;983;1875;-60
2022/07/18 00:36:13;;;;;;;;;;;;;;;18.66;31.91;97585.91;30001;983;1875;-60
2022/07/18 00:36:44;;;;;;;;;;;;;;;18.67;32.31;97584.75;30001;967;1796;-61
2022/07/18 00:37:15;;;;;;;;;;;;;;;18.67;32.05;97589.44;30001;982;1862;-59
2022/07/18 00:37:45;;;;;;;;;;;;;;;18.66;31.92;97583.16;30001;982;1866;-60
2022/07/18 00:38:16;;;;;;;;;;;;;;;18.67;32.05;97586.69;30001;982;1875;-60
2022/07/18 00:38:47;;;;;;;;;;;;;;;18.66;32.10;97582.34;30001;982;1875;-61
2022/07/18 00:39:18;;;;;;;;;;;;;;;18.67;32.12;97587.50;30001;982;1875;-59
2022/07/18 00:39:49;;;;;;;;;;;;;;;18.67;31.48;97582.00;30001;982;1779;-60
2022/07/18 00:40:20;;;;;;;;;;;;;;;18.67;31.42;97584.75;30001;982;1876;-60
2022/07/18 00:40:51;;;;;;;;;;;;;;;18.68;31.50;97585.56;30001;983;1875;-60
2022/07/18 00:41:22;;;;;;;;;;;;;;;18.69;31.50;97581.69;30001;983;1875;-60
2022/07/18 00:41:52;;;;;;;;;;;;;;;18.69;31.27;97582.50;30001;983;1875;-61
2022/07/18 00:42:23;;;;;;;;;;;;;;;18.69;31.18;97587.19;30001;983;1862;-59
2022/07/18 00:42:54;;;;;;;;;;;;;;;18.70;31.43;97581.34;30001;983;1866;-59
2022/07/18 00:43:25;;;;;;;;;;;;;;;18.70;31.49;97584.09;30001;983;1875;-59
2022/07/18 00:43:57;;;;;;;;;;;;;;;18.68;31.22;97580.88;30001;983;1875;-60
2022/07/18 00:44:28;;;;;;;;;;;;;;;18.69;31.24;97582.50;30001;983;1875;-60
2022/07/18 00:44:59;;;;;;;;;;;;;;;18.69;31.64;97587.19;30001;982;1875;-61
2022/07/18 00:45:31;;;;;;;;;;;;;;;18.69;31.62;97582.50;30001;982;1875;-60
2022/07/18 00:46:01;;;;;;;;;;;;;;;18.68;31.64;97580.88;30001;982;1875;-60
2022/07/18 00:46:32;;;;;;;;;;;;;;;18.69;31.88;97587.19;30001;982;1875;-60
2022/07/18 00:47:03;;;;;;;;;;;;;;;18.68;31.63;97580.06;30001;982;1875;-60
2022/07/18 00:47:34;;;;;;;;;;;;;;;18.67;31.91;97579.25;30001;983;1861;-59
2022/07/18 00:48:08;;;;;;;;;;;;;;;18.67;31.96;97578.44;30001;983;1866;-60
2022/07/18 00:48:42;;;;;;;;;;;;;;;18.66;32.00;97574.91;30001;983;1875;-60
2022/07/18 00:49:12;;;;;;;;;;;;;;;18.68;31.92;97574.56;30001;983;1875;-60
2022/07/18 00:49:44;;;;;;;;;;;;;;;18.67;31.82;97582.00;30001;983;1875;-60
2022/07/18 00:50:15;;;;;;;;;;;;;;;18.68;31.24;97569.87;30001;983;1875;-60
2022/07/18 00:50:46;;;;;;;;;;;;;;;18.68;31.47;97572.63;30001;983;1875;-60
2022/07/18 00:51:17;;;;;;;;;;;;;;;18.70;31.63;97566.81;30001;983;1875;-60
2022/07/18 00:51:49;;;;;;;;;;;;;;;18.69;31.68;97582.50;30001;983;1875;-60
2022/07/18 00:52:19;;;;;;;;;;;;;;;18.69;31.56;97573.44;30001;982;1875;-61
2022/07/18 00:52:51;;;;;;;;;;;;;;;18.70;31.77;97572.31;30001;982;1862;-59
2022/07/18 00:53:23;;;;;;;;;;;;;;;18.70;31.59;97572.31;30001;982;1867;-61
2022/07/18 00:53:56;;;;;;;;;;;;;;;18.69;31.83;97571.50;30001;982;1862;-60
2022/07/18 00:54:27;;;;;;;;;;;;;;;18.69;31.53;97568.75;30001;982;1853;-59
2022/07/18 00:55:02;;;;;;;;;;;;;;;18.70;31.89;97567.59;30001;983;1874;-60
2022/07/18 00:55:33;;;;;;;;;;;;;;;18.70;31.78;97572.31;30001;983;1874;-60
2022/07/18 00:56:04;;;;;;;;;;;;;;;18.69;31.92;97571.50;30001;983;1874;-61
2022/07/18 00:56:35;;;;;;;;;;;;;;;18.67;31.90;97568.25;30001;983;1875;-59
2022/07/18 00:57:06;;;;;;;;;;;;;;;18.68;32.23;97578.13;30001;983;1875;-60
2022/07/18 00:57:39;;;;;;;;;;;;;;;18.67;32.04;97573.75;30001;987;1862;-61
2022/07/18 00:58:13;;;;;;;;;;;;;;;18.65;32.20;97576.03;30001;983;1871;-60
2022/07/18 00:58:45;;;;;;;;;;;;;;;18.66;32.06;97580.41;30001;975;1898;-61
2022/07/18 00:59:16;;;;;;;;;;;;;;;18.65;32.49;97586.22;30001;982;1879;-59
2022/07/18 01:01:46;;;;;;;;;;;;;;;18.62;32.62;97573.94;30001;982;1880;-61
2022/07/18 01:02:17;;;;;;;;;;;;;;;18.63;32.72;97577.50;30001;983;1866;-61
2022/07/18 01:02:47;;;;;;;;;;;;;;;18.61;32.37;97580.56;30001;983;1857;-60
2022/07/18 01:03:18;;;;;;;;;;;;;;;18.60;32.55;97578.94;30001;983;1879;-60
2022/07/18 01:03:49;;;;;;;;;;;;;;;18.61;32.42;97579.75;30001;983;1879;-60
2022/07/18 01:04:21;;;;;;;;;;;;;;;18.59;32.36;97577.31;30001;983;1879;-61
2022/07/18 01:04:53;;;;;;;;;;;;;;;18.58;32.61;97577.63;30001;983;1879;-60
2022/07/18 01:05:24;;;;;;;;;;;;;;;18.58;32.36;97575.69;30001;983;1866;-60
2022/07/18 01:05:55;;;;;;;;;;;;;;;18.57;32.39;97576.03;30001;983;1857;-60
2022/07/18 01:06:25;;;;;;;;;;;;;;;18.56;32.71;97569.72;30001;983;1879;-60
2022/07/18 01:06:57;;;;;;;;;;;;;;;18.57;32.96;97585.06;30001;982;1879;-60
2022/07/18 01:07:28;;;;;;;;;;;;;;;18.55;32.76;97576.34;30001;982;1880;-59
2022/07/18 01:07:59;;;;;;;;;;;;;;;18.55;32.53;97572.78;30001;982;1880;-61
2022/07/18 01:08:30;;;;;;;;;;;;;;;18.54;32.86;97574.72;30001;982;1880;-60
2022/07/18 01:09:01;;;;;;;;;;;;;;;18.53;32.52;97578.63;30001;982;1867;-61
2022/07/18 01:09:32;;;;;;;;;;;;;;;18.52;32.70;97568.75;30001;982;1871;-60
2022/07/18 01:10:04;;;;;;;;;;;;;;;18.52;32.77;97570.69;30001;974;1866;-59
2022/07/18 01:10:35;;;;;;;;;;;;;;;18.50;32.54;97568.28;30001;983;1870;-61
2022/07/18 01:11:06;;;;;;;;;;;;;;;18.51;32.66;97578.13;30001;983;1879;-60
2022/07/18 01:11:37;;;;;;;;;;;;;;;18.50;32.47;97571.03;30001;983;1879;-60
2022/07/18 01:12:08;;;;;;;;;;;;;;;18.49;32.79;97565.84;30001;983;1879;-61
2022/07/18 01:12:39;;;;;;;;;;;;;;;18.48;32.83;97570.53;30001;983;1879;-61
2022/07/18 01:13:10;;;;;;;;;;;;;;;18.47;32.95;97570.88;30001;983;1879;-59
2022/07/18 01:13:41;;;;;;;;;;;;;;;18.47;32.94;97579.91;30001;982;1879;-60
2022/07/18 01:14:12;;;;;;;;;;;;;;;18.46;32.83;97577.50;30001;982;1879;-59
2022/07/18 01:14:45;;;;;;;;;;;;;;;18.45;33.36;97573.94;30001;982;1879;-60
2022/07/18 01:15:17;;;;;;;;;;;;;;;18.42;33.03;97572.66;30001;982;1866;-60
2022/07/18 01:15:48;;;;;;;;;;;;;;;18.41;33.28;97568.28;30001;982;1871;-61
2022/07/18 01:16:19;;;;;;;;;;;;;;;18.41;33.43;97581.22;30001;982;1880;-60
2022/07/18 01:16:49;;;;;;;;;;;;;;;18.40;33.15;97576.84;30001;982;1880;-60
2022/07/18 01:17:20;;;;;;;;;;;;;;;18.40;33.05;97576.84;30001;982;1880;-59
2022/07/18 01:17:51;;;;;;;;;;;;;;;18.37;32.94;97570.06;30001;983;1879;-60
2022/07/18 01:18:22;;;;;;;;;;;;;;;18.37;33.17;97570.06;30001;983;1879;-60
2022/07/18 01:18:53;;;;;;;;;;;;;;;18.37;32.87;97580.25;30001;983;1879;-60
2022/07/18 01:19:27;;;;;;;;;;;;;;;18.36;32.89;97575.94;30001;983;1879;-59
2022/07/18 01:19:58;;;;;;;;;;;;;;;18.36;32.89;97575.94;30001;962;1900;-60
2022/07/18 01:20:30;;;;;;;;;;;;;;;18.34;32.89;97572.69;30001;983;1866;-60
2022/07/18 01:21:01;;;;;;;;;;;;;;;18.34;32.83;97575.44;30001;983;1871;-60
2022/07/18 01:21:32;;;;;;;;;;;;;;;18.32;33.27;97580.47;30001;983;1879;-60
2022/07/18 01:22:03;;;;;;;;;;;;;;;18.32;33.15;97577.72;30001;982;1880;-59
2022/07/18 01:22:34;;;;;;;;;;;;;;;18.31;33.32;97582.41;30001;982;1866;-59
2022/07/18 01:23:05;;;;;;;;;;;;;;;18.31;33.43;97581.59;30001;982;1871;-60
2022/07/18 01:23:35;;;;;;;;;;;;;;;18.31;33.22;97576.09;30001;982;1880;-60
2022/07/18 01:24:10;;;;;;;;;;;;;;;18.30;33.00;97577.22;30001;982;1880;-60
2022/07/18 01:24:41;;;;;;;;;;;;;;;18.29;33.31;97572.88;30001;961;1901;-60
2022/07/18 01:25:12;;;;;;;;;;;;;;;18.30;33.23;97575.28;30001;983;1879;-61
2022/07/18 01:25:43;;;;;;;;;;;;;;;18.29;33.15;97568.19;30001;983;1879;-60
2022/07/18 01:26:15;;;;;;;;;;;;;;;18.28;33.18;97571.25;30001;973;1897;-61
2022/07/18 01:26:46;;;;;;;;;;;;;;;18.29;33.21;97572.88;30001;983;1879;-61
2022/07/18 01:27:19;;;;;;;;;;;;;;;18.29;33.07;97570.91;30001;983;1866;-59
2022/07/18 01:27:50;;;;;;;;;;;;;;;18.28;33.21;97572.06;30001;983;1871;-60
2022/07/18 01:28:21;;;;;;;;;;;;;;;18.29;32.86;97573.66;30001;983;1879;-60
2022/07/18 01:28:52;;;;;;;;;;;;;;;18.28;33.12;97572.06;30001;983;1879;-59
2022/07/18 01:29:22;;;;;;;;;;;;;;;18.29;33.01;97567.38;30001;982;1880;-59
2022/07/18 01:29:53;;;;;;;;;;;;;;;18.29;33.12;97570.13;30001;982;1880;-60
2022/07/18 01:30:24;;;;;;;;;;;;;;;18.29;32.87;97567.38;30001;982;1880;-59
2022/07/18 01:30:55;;;;;;;;;;;;;;;18.28;33.15;97561.06;30001;982;1880;-61
2022/07/18 01:31:26;;;;;;;;;;;;;;;18.29;32.86;97572.88;30001;982;1867;-59
2022/07/18 01:32:03;;;;;;;;;;;;;;;18.28;32.84;97571.25;30001;983;1870;-60
2022/07/18 01:32:34;;;;;;;;;;;;;;;18.28;33.22;97572.06;30001;983;1866;-60
2022/07/18 01:33:04;;;;;;;;;;;;;;;18.27;33.17;97566.88;30001;983;1870;-59
2022/07/18 01:33:35;;;;;;;;;;;;;;;18.26;33.33;97573.50;30001;983;1879;-59
2022/07/18 01:34:06;;;;;;;;;;;;;;;18.27;33.14;97569.63;30001;983;1879;-60
2022/07/18 01:34:37;;;;;;;;;;;;;;;18.26;32.97;97568.03;30001;983;1879;-59
2022/07/18 01:35:08;;;;;;;;;;;;;;;18.25;33.18;97566.41;30001;983;1880;-59
2022/07/18 01:35:39;;;;;;;;;;;;;;;18.25;33.17;97566.41;30001;983;1866;-60
2022/07/18 01:36:10;;;;;;;;;;;;;;;18.24;33.23;97567.53;30001;972;1893;-60
2022/07/18 01:36:41;;;;;;;;;;;;;;;18.23;33.20;97574.16;30001;982;1880;-60
2022/07/18 01:37:12;;;;;;;;;;;;;;;18.22;33.42;97573.34;30001;982;1880;-59
2022/07/18 01:37:43;;;;;;;;;;;;;;;18.23;33.43;97565.91;30001;982;1880;-60
2022/07/18 01:38:14;;;;;;;;;;;;;;;18.21;33.40;97565.44;30001;982;1880;-60
2022/07/18 01:38:46;;;;;;;;;;;;;;;18.21;33.20;97570.94;30001;982;1880;-60
2022/07/18 01:39:16;;;;;;;;;;;;;;;18.21;33.33;97576.44;30001;983;1879;-59
2022/07/18 01:39:48;;;;;;;;;;;;;;;18.21;33.23;97570.94;30001;983;1865;-61
2022/07/18 01:40:19;;;;;;;;;;;;;;;18.19;33.32;97563.00;30001;983;1870;-59
2022/07/18 01:40:50;;;;;;;;;;;;;;;18.20;33.20;97569.31;30001;983;1879;-60
2022/07/18 01:41:21;;;;;;;;;;;;;;;18.19;33.28;97574.00;30001;983;1879;-59
2022/07/18 01:41:56;;;;;;;;;;;;;;;18.19;33.25;97567.69;30001;983;1879;-61
2022/07/18 01:42:31;;;;;;;;;;;;;;;18.18;32.83;97571.56;30001;983;1866;-60
2022/07/18 01:43:02;;;;;;;;;;;;;;;18.17;32.91;97570.78;30001;983;1871;-60
2022/07/18 01:43:34;;;;;;;;;;;;;;;18.17;33.21;97569.97;30001;983;1880;-60
2022/07/18 01:44:05;;;;;;;;;;;;;;;18.16;32.90;97573.84;30001;983;1879;-60
2022/07/18 01:44:37;;;;;;;;;;;;;;;18.17;33.01;97564.47;30001;982;1880;-60
2022/07/18 01:45:08;;;;;;;;;;;;;;;18.16;32.99;97565.59;30001;982;1880;-60
2022/07/18 01:45:39;;;;;;;;;;;;;;;18.16;33.30;97568.34;30001;982;1880;-60
2022/07/18 01:46:10;;;;;;;;;;;;;;;18.14;33.21;97568.66;30001;982;1880;-60
2022/07/18 01:46:42;;;;;;;;;;;;;;;18.14;32.94;97568.66;30001;982;1880;-59
2022/07/18 01:47:15;;;;;;;;;;;;;;;18.14;33.26;97565.12;30001;983;1866;-59
2022/07/18 01:47:48;;;;;;;;;;;;;;;18.14;33.38;97570.59;30001;983;1870;-60
2022/07/18 01:48:19;;;;;;;;;;;;;;;18.14;32.86;97565.12;30001;983;1879;-59
2022/07/18 01:48:49;;;;;;;;;;;;;;;18.12;33.03;97567.38;30001;983;1879;-60
2022/07/18 01:49:21;;;;;;;;;;;;;;;18.14;33.02;97570.59;30001;983;1879;-60
2022/07/18 01:49:52;;;;;;;;;;;;;;;18.14;32.96;97565.12;30001;983;1879;-60
2022/07/18 01:50:23;;;;;;;;;;;;;;;18.16;32.84;97569.16;30001;983;1879;-61
2022/07/18 01:50:54;;;;;;;;;;;;;;;18.16;32.88;97562.84;30001;983;1879;-60
2022/07/18 01:51:25;;;;;;;;;;;;;;;18.16;32.61;97563.66;30001;983;1879;-59
2022/07/18 01:51:56;;;;;;;;;;;;;;;18.15;33.04;97561.25;30001;982;1879;-60
2022/07/18 01:52:28;;;;;;;;;;;;;;;18.16;33.05;97568.34;30001;982;1866;-60
2022/07/18 01:52:58;;;;;;;;;;;;;;;18.16;32.79;97562.84;30001;982;1871;-59
2022/07/18 01:53:29;;;;;;;;;;;;;;;18.16;33.14;97568.34;30001;982;1880;-60
2022/07/18 01:54:01;;;;;;;;;;;;;;;18.16;33.25;97568.34;30001;982;1880;-60
2022/07/18 01:54:33;;;;;;;;;;;;;;;18.16;33.06;97568.34;30001;983;1879;-60
2022/07/18 01:55:05;;;;;;;;;;;;;;;18.14;33.24;97559.63;30001;983;1879;-60
2022/07/18 01:55:37;;;;;;;;;;;;;;;18.14;33.19;97565.94;30001;983;1879;-60
2022/07/18 01:56:08;;;;;;;;;;;;;;;18.14;33.52;97565.94;30001;983;1879;-60
2022/07/18 01:56:39;;;;;;;;;;;;;;;18.14;33.28;97567.88;30001;983;1879;-59
2022/07/18 01:57:10;;;;;;;;;;;;;;;18.15;33.31;97566.72;30001;983;1879;-59
2022/07/18 01:57:41;;;;;;;;;;;;;;;18.14;33.50;97565.12;30001;987;1866;-61
2022/07/18 01:58:12;;;;;;;;;;;;;;;18.13;33.21;97569.00;30001;983;1857;-58
2022/07/18 01:58:42;;;;;;;;;;;;;;;18.14;32.98;97565.94;30001;983;1866;-60
2022/07/18 01:59:13;;;;;;;;;;;;;;;18.14;33.12;97559.63;30001;983;1871;-59
2022/07/18 01:59:44;;;;;;;;;;;;;;;18.15;32.70;97561.25;30001;982;1880;-60
2022/07/18 02:00:15;;;;;;;;;;;;;;;18.15;32.99;97559.31;30001;982;1880;-59
2022/07/18 02:00:46;;;;;;;;;;;;;;;18.15;32.76;97561.25;30001;982;1880;-59
2022/07/18 02:01:17;;;;;;;;;;;;;;;18.15;33.17;97566.72;30001;982;1880;-60
2022/07/18 02:01:47;;;;;;;;;;;;;;;18.15;33.19;97564.00;30001;982;1880;-59
2022/07/18 02:02:21;;;;;;;;;;;;;;;18.15;33.43;97558.50;30001;983;1879;-60
2022/07/18 02:02:52;;;;;;;;;;;;;;;18.15;33.16;97561.25;30001;983;1879;-59
2022/07/18 02:03:23;;;;;;;;;;;;;;;18.14;33.29;97563.19;30001;983;1866;-60
2022/07/18 02:03:54;;;;;;;;;;;;;;;18.15;33.33;97564.00;30001;983;1857;-61
2022/07/18 02:04:59;;;;;;;;;;;;;;;18.15;33.13;97561.25;30001;983;1879;-59
2022/07/18 02:05:16;;;;;;;;;;;;;;;18.14;33.02;97565.94;30001;983;1879;-60
2022/07/18 02:05:47;;;;;;;;;;;;;;;18.14;33.56;97567.88;30001;983;1879;-60
2022/07/18 02:06:18;;;;;;;;;;;;;;;18.13;33.08;97563.50;30001;982;1879;-60
2022/07/18 02:06:49;;;;;;;;;;;;;;;18.13;33.37;97574.50;30001;982;1880;-59
2022/07/18 02:07:19;;;;;;;;;;;;;;;18.12;33.17;97568.19;30001;982;1880;-60
2022/07/18 02:07:50;;;;;;;;;;;;;;;18.12;33.41;97564.63;30001;982;1880;-60
2022/07/18 02:08:21;;;;;;;;;;;;;;;18.12;33.35;97567.38;30001;982;1880;-59
2022/07/18 02:08:52;;;;;;;;;;;;;;;18.11;33.44;97565.78;30001;982;1880;-59
2022/07/18 02:09:23;;;;;;;;;;;;;;;18.11;33.71;97572.06;30001;982;1867;-60
2022/07/18 02:09:54;;;;;;;;;;;;;;;18.09;33.65;97566.91;30001;983;1870;-59
2022/07/18 02:10:25;;;;;;;;;;;;;;;18.09;33.40;97566.09;30001;983;1879;-59
2022/07/18 02:10:56;;;;;;;;;;;;;;;18.11;33.68;97571.25;30001;983;1879;-58
2022/07/18 02:11:26;;;;;;;;;;;;;;;18.10;33.09;97570.44;30001;983;1879;-59
2022/07/18 02:11:57;;;;;;;;;;;;;;;18.10;33.49;97570.44;30001;983;1879;-61
2022/07/18 02:12:28;;;;;;;;;;;;;;;18.11;33.46;97571.25;30001;983;1879;-60
2022/07/18 02:12:59;;;;;;;;;;;;;;;18.11;33.33;97571.25;30001;983;1879;-61
2022/07/18 02:13:31;;;;;;;;;;;;;;;18.11;33.30;97568.50;30001;983;1866;-60
2022/07/18 02:14:03;;;;;;;;;;;;;;;18.11;33.39;97569.31;30001;982;1858;-59
2022/07/18 02:14:33;;;;;;;;;;;;;;;18.10;33.39;97570.44;30001;982;1785;-60
2022/07/18 02:15:06;;;;;;;;;;;;;;;18.08;33.51;97568.03;30001;982;1880;-59
2022/07/18 02:15:37;;;;;;;;;;;;;;;18.08;33.73;97568.03;30001;982;1880;-60
2022/07/18 02:16:08;;;;;;;;;;;;;;;18.07;34.00;97571.91;30001;982;1867;-59
2022/07/18 02:16:38;;;;;;;;;;;;;;;18.04;33.99;97572.56;30001;982;1872;-60
2022/07/18 02:17:09;;;;;;;;;;;;;;;18.05;34.17;97571.41;30001;983;1880;-59
2022/07/18 02:17:41;;;;;;;;;;;;;;;18.04;34.60;97578.03;30001;983;1879;-61
2022/07/18 02:18:11;;;;;;;;;;;;;;;18.04;34.24;97578.03;30001;983;1879;-60
2022/07/18 02:18:43;;;;;;;;;;;;;;;18.02;34.36;97572.06;30001;983;1879;-59
2022/07/18 02:19:14;;;;;;;;;;;;;;;18.02;34.30;97580.31;30001;983;1866;-59
2022/07/18 02:19:45;;;;;;;;;;;;;;;18.01;34.03;97570.47;30001;983;1871;-59
2022/07/18 02:20:16;;;;;;;;;;;;;;;18.02;34.30;97574.00;30001;983;1879;-60
2022/07/18 02:20:47;;;;;;;;;;;;;;;18.01;34.27;97573.22;30001;983;1879;-61
2022/07/18 02:21:18;;;;;;;;;;;;;;;18.00;34.00;97571.63;30001;982;1879;-60
2022/07/18 02:21:49;;;;;;;;;;;;;;;17.99;34.02;97577.44;30001;985;1879;-59
2022/07/18 02:22:20;;;;;;;;;;;;;;;17.98;34.42;97573.06;30001;982;1880;-61
2022/07/18 02:22:50;;;;;;;;;;;;;;;17.98;34.25;97573.06;30001;982;1880;-60
2022/07/18 02:23:21;;;;;;;;;;;;;;;17.96;34.75;97576.13;30001;982;1880;-59
2022/07/18 02:23:54;;;;;;;;;;;;;;;17.96;34.68;97570.66;30001;982;1880;-60
2022/07/18 02:24:25;;;;;;;;;;;;;;;17.97;35.24;97577.75;30001;982;1867;-61
2022/07/18 02:24:56;;;;;;;;;;;;;;;17.97;34.96;97577.75;30001;983;1870;-60
2022/07/18 02:25:27;;;;;;;;;;;;;;;17.96;35.16;97581.62;30001;983;1879;-60
2022/07/18 02:25:57;;;;;;;;;;;;;;;17.98;35.71;97578.56;30001;983;1866;-60
2022/07/18 02:26:28;;;;;;;;;;;;;;;17.98;35.82;97576.63;30001;983;1870;-59
2022/07/18 02:27:00;;;;;;;;;;;;;;;17.98;35.87;97575.81;30001;983;1879;-59
2022/07/18 02:27:31;;;;;;;;;;;;;;;17.97;36.11;97586.00;30001;983;1879;-60
2022/07/18 02:28:02;;;;;;;;;;;;;;;17.96;36.03;97578.88;30001;983;1879;-59
2022/07/18 02:28:33;;;;;;;;;;;;;;;17.95;36.53;97585.50;30001;983;1879;-59
2022/07/18 02:29:04;;;;;;;;;;;;;;;17.95;37.15;97590.19;30001;982;1880;-60
2022/07/18 02:29:35;;;;;;;;;;;;;;;17.93;36.38;97584.22;30001;982;1866;-59
2022/07/18 02:30:08;;;;;;;;;;;;;;;17.90;36.84;97588.41;30001;982;1871;-59
2022/07/18 02:30:38;;;;;;;;;;;;;;;17.88;37.38;97585.19;30001;982;1880;-59
2022/07/18 02:31:09;;;;;;;;;;;;;;;17.87;37.00;97591.78;30001;982;1867;-60
2022/07/18 02:31:40;;;;;;;;;;;;;;;17.87;37.45;97594.53;30001;982;1871;-59
2022/07/18 02:32:11;;;;;;;;;;;;;;;17.87;37.92;97591.00;30001;983;1879;-60
2022/07/18 02:32:42;;;;;;;;;;;;;;;17.85;37.98;97594.06;30001;983;1879;-58
2022/07/18 02:33:13;;;;;;;;;;;;;;;17.85;37.97;97591.31;30001;983;1866;-59
2022/07/18 02:33:44;;;;;;;;;;;;;;;17.85;38.43;97585.81;30001;983;1870;-60
2022/07/18 02:34:15;;;;;;;;;;;;;;;17.84;38.63;97589.69;30001;983;1879;-60
2022/07/18 02:34:46;;;;;;;;;;;;;;;17.84;38.61;97592.44;30001;983;1880;-59
2022/07/18 02:35:17;;;;;;;;;;;;;;;17.84;38.76;97595.19;30001;983;1879;-57
2022/07/18 02:35:48;;;;;;;;;;;;;;;17.85;39.38;97599.53;30001;983;1879;-60
2022/07/18 02:36:19;;;;;;;;;;;;;;;17.85;39.23;97596.81;30001;982;1880;-59
2022/07/18 02:36:50;;;;;;;;;;;;;;;17.85;39.16;97591.31;30001;982;1880;-59
2022/07/18 02:37:21;;;;;;;;;;;;;;;17.86;39.01;97592.94;30001;982;1880;-58
2022/07/18 02:37:52;;;;;;;;;;;;;;;17.84;39.18;97586.94;30001;982;1880;-59
2022/07/18 02:38:22;;;;;;;;;;;;;;;17.84;38.82;97584.19;30001;982;1867;-59
2022/07/18 02:38:53;;;;;;;;;;;;;;;17.83;39.22;97585.34;30001;983;1870;-59
2022/07/18 02:39:24;;;;;;;;;;;;;;;17.83;38.98;97593.56;30001;983;1879;-59
2022/07/18 02:39:55;;;;;;;;;;;;;;;17.85;39.41;97588.56;30001;983;1866;-60
2022/07/18 02:40:26;;;;;;;;;;;;;;;17.86;39.48;97592.94;30001;983;1870;-60
2022/07/18 02:40:56;;;;;;;;;;;;;;;17.86;39.35;97597.59;30001;983;1879;-60
2022/07/18 02:41:27;;;;;;;;;;;;;;;17.84;38.97;97589.69;30001;983;1879;-59
2022/07/18 02:41:58;;;;;;;;;;;;;;;17.81;39.14;97590.34;30001;983;1879;-60
2022/07/18 02:42:29;;;;;;;;;;;;;;;17.79;39.44;97598.09;30001;983;1879;-60
2022/07/18 02:43:03;;;;;;;;;;;;;;;17.77;39.88;97602.28;30001;983;1879;-60
2022/07/18 02:43:36;;;;;;;;;;;;;;;17.73;41.43;97596.62;30001;983;1879;-60
2022/07/18 02:44:07;;;;;;;;;;;;;;;17.69;41.70;97598.41;30001;982;1880;-60
2022/07/18 02:44:37;;;;;;;;;;;;;;;17.66;41.14;97599.06;30001;982;1809;-60
2022/07/18 02:45:09;;;;;;;;;;;;;;;17.64;42.37;97604.03;30001;982;1866;-61
2022/07/18 02:45:44;;;;;;;;;;;;;;;17.57;42.10;97604.50;30001;982;1871;-59
2022/07/18 02:46:15;;;;;;;;;;;;;;;17.54;41.30;97599.66;30001;982;1880;-59
2022/07/18 02:46:46;;;;;;;;;;;;;;;17.52;40.88;97599.16;30001;983;1879;-59
2022/07/18 02:47:16;;;;;;;;;;;;;;;17.52;40.90;97604.66;30001;983;1879;-59
2022/07/18 02:47:47;;;;;;;;;;;;;;;17.52;40.75;97596.41;30001;983;1879;-60
2022/07/18 02:48:18;;;;;;;;;;;;;;;17.52;41.00;97592.87;30001;983;1879;-60
2022/07/18 02:48:49;;;;;;;;;;;;;;;17.50;40.52;97595.13;30001;983;1879;-61
2022/07/18 02:49:28;;;;;;;;;;;;;;;17.50;40.98;97595.13;30001;983;1879;-60